Flight Track Log - Related Links

Times and Time Zones

All times are in EDT time to prevent confusion due to time zone crossing. See the TAM3343 flight status page for this flight to view local times or setup timezone preferences in your user account.

Time Position Orientation Groundspeed Altitude Reporting Facility
EDT Latitude Longitude Course Direction KTS MPH feet Rate Location/Type
Fri 10:52:36 AM -19.6310 -43.9690 320° Northwest 17 20  Level FlightAware ADS-B
Fri 10:53:06 AM -19.6290 -43.9710 317° Northwest 20 23 1,261 Level FlightAware ADS-B
Fri 10:55:00 AM -19.7540 -44.0508 211° Southwest  Level Estimated
Fri 10:56:00 AM -19.8199 -44.0928 211° Southwest  Level Estimated
Fri 10:57:00 AM -19.8856 -44.1349 211° Southwest  Level Estimated
Fri 10:58:00 AM -19.9514 -44.1770 211° Southwest  Level Estimated
Fri 10:58:28 AM -19.7150 -43.8740 211° Southwest 246 283 7,400  Level FlightAware ADS-B
Fri 10:59:09 AM -19.6680 -43.8820 351° North 260 299 9,200 2,759 Climbing FlightAware ADS-B
Fri 10:59:55 AM -19.6210 -43.9050 335° Northwest 255 293 11,400 2,842 Climbing FlightAware ADS-B
Fri 11:00:25 AM -19.5950 -43.9300 318° Northwest 266 306 12,800 1,469 Climbing FlightAware ADS-B
Fri 11:01:33 AM -19.5690 -44.0140 288° West 296 341 13,800 1,021 Climbing FlightAware ADS-B
Fri 11:01:59 AM -19.5770 -44.0680 261° West 350 403 14,400 1,171 Climbing FlightAware ADS-B
Fri 11:02:14 AM -19.5940 -44.0880 228° Southwest 358 412 14,600 1,200 Climbing FlightAware ADS-B
Fri 11:02:54 AM -19.6420 -44.1390 225° Southwest 378 435 15,500 2,049 Climbing FlightAware ADS-B
Fri 11:03:36 AM -19.6900 -44.1910 226° Southwest 363 418 17,400 2,175 Climbing FlightAware ADS-B
Fri 11:04:14 AM -19.7350 -44.2400 226° Southwest 361 415 18,400 1,800 Climbing FlightAware ADS-B
Fri 11:04:56 AM -19.7870 -44.2960 225° Southwest 363 418 19,800 1,648 Climbing FlightAware ADS-B
Fri 11:05:45 AM -19.8420 -44.3560 226° Southwest 379 436 20,900 1,416 Climbing FlightAware ADS-B
Fri 11:06:25 AM -19.8910 -44.4090 225° Southwest 389 448 21,900 1,050 Climbing FlightAware ADS-B
Fri 11:07:05 AM -19.9470 -44.4700 226° Southwest 413 475 22,300 966 Climbing FlightAware ADS-B
Fri 11:07:52 AM -20.0110 -44.5400 226° Southwest 426 490 23,300 1,310 Climbing FlightAware ADS-B
Fri 11:08:32 AM -20.0670 -44.6000 225° Southwest 432 497 24,200 706 Climbing FlightAware ADS-B
Fri 11:09:17 AM -20.1220 -44.6610 226° Southwest 434 499 24,300 1,814 Climbing FlightAware ADS-B
Fri 11:09:58 AM -20.1830 -44.7280 226° Southwest 424 488 26,800 2,278 Climbing FlightAware ADS-B
Fri 11:10:36 AM -20.2350 -44.7840 225° Southwest 435 501 27,300 387 Climbing FlightAware ADS-B
Fri 11:11:31 AM -20.3080 -44.8620 225° Southwest 444 511 27,400 1,074 Climbing FlightAware ADS-B
Fri 11:12:11 AM -20.3710 -44.9330 227° Southwest 449 517 29,000 1,674 Climbing FlightAware ADS-B
Fri 11:12:57 AM -20.4390 -45.0070 226° Southwest 454 522 29,800 1,535 Climbing FlightAware ADS-B
Fri 11:13:37 AM -20.5000 -45.0750 226° Southwest 446 513 31,200 1,515 Climbing FlightAware ADS-B
Fri 11:14:36 AM -20.5810 -45.1650 226° Southwest 440 506 32,300 947 Climbing FlightAware ADS-B
Fri 11:15:12 AM -20.6200 -45.2070 225° Southwest 441 507 32,700 857 Climbing FlightAware ADS-B
Fri 11:15:53 AM -20.6880 -45.2830 226° Southwest 444 511 33,400 796 Climbing FlightAware ADS-B
Fri 11:16:50 AM -20.7720 -45.3750 226° Southwest 439 505 34,000 379 Climbing FlightAware ADS-B
Fri 11:17:28 AM -20.8260 -45.4350 226° Southwest 437 503 34,000  Level FlightAware ADS-B
Fri 11:18:14 AM -20.8780 -45.4920 226° Southwest 439 505 34,000  Level FlightAware ADS-B
Fri 11:18:51 AM -20.9370 -45.5580 226° Southwest 437 503 34,000  Level FlightAware ADS-B
Fri 11:19:31 AM -20.9910 -45.6180 226° Southwest 436 502 34,000  Level FlightAware ADS-B
Fri 11:20:37 AM -21.0950 -45.7330 226° Southwest 436 502 34,000  Level FlightAware ADS-B
Fri 11:21:17 AM -21.1480 -45.7930 227° Southwest 430 495 34,000  Level FlightAware ADS-B
Fri 11:21:59 AM -21.2100 -45.8620 226° Southwest 437 503 34,000  Level FlightAware ADS-B
Fri 11:22:47 AM -21.2770 -45.9370 226° Southwest 436 502 34,000  Level FlightAware ADS-B
Fri 11:23:28 AM -21.3320 -45.9980 226° Southwest 436 502 34,000  Level FlightAware ADS-B
Fri 11:24:08 AM -21.3890 -46.0620 226° Southwest 434 499 34,000  Level FlightAware ADS-B
Fri 11:24:53 AM -21.4510 -46.1310 226° Southwest 432 497 34,000  Level FlightAware ADS-B
Fri 11:25:34 AM -21.5010 -46.1880 227° Southwest 431 496 34,000  Level FlightAware ADS-B
Fri 11:26:12 AM -21.5490 -46.2540 232° Southwest 429 494 34,000  Level FlightAware ADS-B
Fri 11:26:57 AM -21.5870 -46.3490 247° West 427 491 34,000  Level FlightAware ADS-B
Fri 11:27:37 AM -21.6190 -46.4270 246° West 427 491 34,000  Level FlightAware ADS-B
Fri 11:28:22 AM -21.6540 -46.5150 247° West 420 483 34,000  Level FlightAware ADS-B
Fri 11:28:57 AM -21.6810 -46.5810 246° West 412 474 34,000  Level FlightAware ADS-B
Fri 11:29:42 AM -21.7150 -46.6670 247° West 415 478 34,000  Level FlightAware ADS-B
Fri 11:30:27 AM -21.7490 -46.7510 246° West 418 481 34,000  Level FlightAware ADS-B
Fri 11:31:06 AM -21.7810 -46.8250 245° Southwest 421 484 34,000 -565 Level FlightAware ADS-B
Fri 11:31:52 AM -21.8470 -46.8910 223° Southwest 416 479 33,200 -1,846 Descending FlightAware ADS-B
Fri 11:32:37 AM -21.9120 -46.9510 221° Southwest 412 474 31,200 -2,329 Descending FlightAware ADS-B
Fri 11:33:17 AM -21.9740 -47.0070 220° Southwest 420 483 29,900 -2,000 Descending FlightAware ADS-B
Fri 11:33:58 AM -22.0330 -47.0570 218° Southwest 414 476 28,500 -2,025 Descending FlightAware ADS-B
Fri 11:34:37 AM -22.1050 -47.0840 199° South 400 460 27,200 -1,800 Descending FlightAware ADS-B
Fri 11:35:18 AM -22.1760 -47.1070 197° South 387 445 26,100 -1,111 Descending FlightAware ADS-B
Fri 11:35:58 AM -22.2400 -47.1280 197° South 351 404 25,700 -900 Descending FlightAware ADS-B
Fri 11:36:38 AM -22.3040 -47.1480 196° South 338 389 24,900 -1,350 Descending FlightAware ADS-B
Fri 11:37:18 AM -22.3630 -47.1680 197° South 338 389 23,900 -1,518 Descending FlightAware ADS-B
Fri 11:38:01 AM -22.4290 -47.1600 174° South 317 365 22,800 -1,483 Descending FlightAware ADS-B
Fri 11:38:47 AM -22.4920 -47.1330 158° South 307 353 21,700 -1,227 Descending FlightAware ADS-B
Fri 11:39:29 AM -22.5460 -47.1100 159° South 295 339 21,000 -600 Descending FlightAware ADS-B
Fri 11:40:07 AM -22.5950 -47.0890 158° South 300 345 20,900 -667 Descending FlightAware ADS-B
Fri 11:40:50 AM -22.6510 -47.0660 159° South 293 337 20,100 -701 Descending FlightAware ADS-B
Fri 11:41:24 AM -22.6930 -47.0480 158° South 295 339 20,000 -225 Descending FlightAware ADS-B
Fri 11:42:10 AM -22.7520 -47.0240 159° South 288 331 19,800 -690 Descending FlightAware ADS-B
Fri 11:42:51 AM -22.8020 -47.0030 159° South 282 325 19,000 -1,263 Descending FlightAware ADS-B
Fri 11:43:26 AM -22.8450 -46.9850 159° South 277 319 18,200 -1,247 Descending FlightAware ADS-B
Fri 11:44:08 AM -22.8950 -46.9640 159° South 274 315 17,400 -1,214 Descending FlightAware ADS-B
Fri 11:44:50 AM -22.9450 -46.9430 159° South 270 311 16,500 -1,390 Descending FlightAware ADS-B
Fri 11:45:30 AM -22.9910 -46.9230 158° South 272 313 15,500 -1,098 Descending FlightAware ADS-B
Fri 11:46:12 AM -23.0410 -46.9020 159° South 269 310 15,000 -353 Descending FlightAware ADS-B
Fri 11:46:55 AM -23.0900 -46.8820 159° South 270 311 15,000 -341 Level FlightAware ADS-B
Fri 11:47:40 AM -23.1370 -46.8500 148° Southeast 262 302 14,500 -737 Descending FlightAware ADS-B
Fri 11:47:52 AM -23.1410 -46.8350 106° East 259 298 14,300 -769 Descending FlightAware ADS-B
Fri 11:48:19 AM -23.1340 -46.8030 77° East 262 302 14,000 -419 Descending FlightAware ADS-B
Fri 11:48:35 AM -23.1190 -46.7880 43° Northeast 263 303 14,000  Level FlightAware ADS-B
Fri 11:48:49 AM -23.1030 -46.7830 16° North 266 306 14,000 -545 Level FlightAware ADS-B
Fri 11:49:19 AM -23.0710 -46.7910 347° North 267 307 13,600 -896 Descending FlightAware ADS-B
Fri 11:49:56 AM -23.0290 -46.8090 338° Northwest 267 307 13,000 -987 Descending FlightAware ADS-B
Fri 11:50:38 AM -22.9780 -46.8300 339° North 266 306 12,300 -1,012 Descending FlightAware ADS-B
Fri 11:51:19 AM -22.9340 -46.8490 338° Northwest 262 302 11,600 -1,019 Descending FlightAware ADS-B
Fri 11:51:31 AM -22.9230 -46.8600 317° Northwest 261 300 11,400 -1,091 Descending FlightAware ADS-B
Fri 11:51:52 AM -22.9140 -46.8910 287° West 263 303 11,000 -1,024 Descending FlightAware ADS-B
Fri 11:52:12 AM -22.9220 -46.9140 249° West 264 304 10,700 -878 Descending FlightAware ADS-B
Fri 11:52:33 AM -22.9410 -46.9310 219° Southwest 262 302 10,400 -794 Descending FlightAware ADS-B
Fri 11:53:20 AM -22.9960 -46.9210 170° South 260 299 9,800 -667 Descending FlightAware ADS-B
Fri 11:53:36 AM -23.0130 -46.9140 159° South 263 303 9,700 -316 Descending FlightAware ADS-B
Fri 11:53:58 AM -23.0380 -46.9030 158° South 266 306 9,600 -367 Descending FlightAware ADS-B
Fri 11:54:25 AM -23.0710 -46.8900 160° South 269 310 9,400 -279 Descending FlightAware ADS-B
Fri 11:54:41 AM -23.0890 -46.8830 160° South 269 310 9,400 -279 Level FlightAware ADS-B
Fri 11:55:08 AM -23.1210 -46.8690 158° South 269 310 9,200 -436 Descending FlightAware ADS-B
Fri 11:55:36 AM -23.1540 -46.8550 159° South 272 313 9,000 -462 Descending FlightAware ADS-B
Fri 11:56:00 AM -23.1820 -46.8430 158° South 275 316 8,800 -577 Descending FlightAware ADS-B
Fri 11:56:28 AM -23.2150 -46.8290 159° South 277 319 8,500 -724 Descending FlightAware ADS-B
Fri 11:56:58 AM -23.2490 -46.8070 149° Southeast 274 315 8,100 -714 Descending FlightAware ADS-B
Fri 11:57:10 AM -23.2560 -46.7930 119° Southeast 269 310 8,000 -545 Descending FlightAware ADS-B
Fri 11:57:42 AM -23.2720 -46.7550 115° Southeast 254 292 7,700 -600 Descending FlightAware ADS-B
Fri 11:58:10 AM -23.2840 -46.7230 112° Southeast 236 272 7,400 -667 Descending FlightAware ADS-B
Fri 11:58:36 AM -23.2970 -46.6980 120° Southeast 229 264 7,100 -600 Descending FlightAware ADS-B
Fri 11:58:50 AM -23.3110 -46.6910 155° Southeast 232 267 7,000 -231 Descending FlightAware ADS-B
Fri 11:59:02 AM -23.3240 -46.6900 176° South 228 262 7,000 -514 Level FlightAware ADS-B
Fri 11:59:25 AM -23.3480 -46.6930 187° South 224 258 6,700 -577 Descending FlightAware ADS-B
Fri 11:59:54 AM -23.3760 -46.6960 186° South 202 232 6,500 -892 Descending FlightAware ADS-B
Fri 12:00:39 PM -23.4170 -46.7060 193° South 193 222 5,600 -1,000 Descending FlightAware ADS-B
Fri 12:01:06 PM -23.4400 -46.7140 198° South 197 227 5,300 -558 Descending FlightAware ADS-B
Fri 12:01:22 PM -23.4550 -46.7170 190° South 202 232 5,200 -316 Descending FlightAware ADS-B
Fri 12:01:44 PM -23.4730 -46.7090 158° South 205 236 5,100 -429 Descending FlightAware ADS-B
Fri 12:02:04 PM -23.4790 -46.6900 109° East 195 224 4,900 -522 Descending FlightAware ADS-B
Fri 12:02:30 PM -23.4780 -46.6650 88° East 190 219 4,700 -353 Descending FlightAware ADS-B
Fri 12:03:12 PM -23.4760 -46.6260 87° East 180 207 4,500 -310 Descending FlightAware ADS-B
Fri 12:03:28 PM -23.4720 -46.6120 73° East 183 211 4,400 -545 Descending FlightAware ADS-B
Fri 12:03:56 PM -23.4660 -46.5880 75° East 169 194 4,100 -842 Descending FlightAware ADS-B
Fri 12:04:25 PM -23.4600 -46.5660 73° East 156 180 3,600 -923 Descending FlightAware ADS-B
Fri 12:04:48 PM -23.4560 -46.5490 76° East 154 177 3,300 -766 Descending FlightAware ADS-B
Fri 12:05:12 PM -23.4510 -46.5300 74° East 158 182 3,000 -831 Descending FlightAware ADS-B
Fri 12:05:53 PM -23.4420 -46.4990 72° East 153 176 2,400 -878 Descending FlightAware ADS-B
Fri 12:06:23 PM -23.4360 -46.4770 73° East 135 155 -4,800 Descending FlightAware ADS-B
Fri 12:08:14 PM -23.4280 -46.4620 60° Northeast 16 18  Level FlightAware ADS-B
Fri 12:08:43 PM -23.4270 -46.4640 299° West 17 20  Level FlightAware ADS-B
Fri 12:09:04 PM -23.4280 -46.4650 223° Southwest 15 17  Level FlightAware ADS-B
Fri 12:09:19 PM -23.4280 -46.4660 270° West 14 16  Level FlightAware ADS-B
Fri 12:09:48 PM -23.4290 -46.4690 250° West 17 20  Level FlightAware ADS-B
Fri 12:10:14 PM -23.4290 -46.4710 270° West 16 18  Level FlightAware ADS-B
Fri 12:10:39 PM -23.4300 -46.4730 241° Southwest 19 22  Level FlightAware ADS-B
Fri 12:11:41 PM -23.4310 -46.4760 250° West 5 6  Level FlightAware ADS-B
Fri 12:12:18 PM -23.4310 -46.4770 270° West 5 6  Level FlightAware ADS-B
Fri 12:12:59 PM -23.4300 -46.4780 317° Northwest 12 14  Level FlightAware ADS-B
Fri 12:13:23 PM -23.4310 -46.4800 241° Southwest 16 18  Level FlightAware ADS-B
Fri 12:13:48 PM -23.4310 -46.4820 270° West 17 20  Level FlightAware ADS-B
Fri 12:14:09 PM -23.4320 -46.4840 241° Southwest 14 16  Level FlightAware ADS-B
Fri 12:14:19 PM -23.4310 -46.4840 360° North 14 16  Level FlightAware ADS-B
Fri 12:14:48 PM -23.4290 -46.4850 335° Northwest 13 15  Level FlightAware ADS-B
Fri 12:17:00 PM -23.4321 -46.4695 102° East  Level Estimated
Fri 12:18:00 PM -23.4321 -46.4695 350° North  Level Estimated
Fri 12:19:00 PM -23.4321 -46.4695 350° North  Level Estimated
Fri 12:20:00 PM -23.4321 -46.4695 350° North  Level Estimated

Login

Don't have an account? Register now (free) for customized features, flight alerts, and more!